Time;durP1;ratioP1;P1;durP2;ratioP2;P2;SDS_P1;SDS_P2;PMS_P1;PMS_P2;Temp;Humidity;BMP_temperature;BMP_pressure;BME280_temperature;BME280_humidity;BME280_pressure;Samples;Min_cycle;Max_cycle;Signal;HPM_P1;HPM_P2
2021/05/04 00:02:18;;;;;;;1.60;1.50;;;;;;;;;;5114861;28;20068;-66
2021/05/04 00:04:44;;;;;;;2.10;1.60;;;;;;;;;;5094639;28;20030;-64
2021/05/04 00:07:10;;;;;;;1.15;1.15;;;;;;;;;;5114897;28;20351;-65
2021/05/04 00:09:36;;;;;;;1.88;1.42;;;;;;;;;;5109950;28;20027;-66
2021/05/04 00:12:03;;;;;;;5.63;1.75;;;;;;;;;;5094298;28;20028;-65
2021/05/04 00:14:31;;;;;;;1.67;1.55;;;;;;;;;;5097611;28;20130;-65
2021/05/04 00:16:57;;;;;;;1.70;1.60;;;;;;;;;;5096226;28;20020;-66
2021/05/04 00:19:23;;;;;;;4.57;1.70;;;;;;;;;;5111094;28;20039;-64
2021/05/04 00:21:49;;;;;;;1.85;1.73;;;;;;;;;;5100274;28;20028;-64
2021/05/04 00:24:15;;;;;;;5.00;1.63;;;;;;;;;;5113802;28;20030;-64
2021/05/04 00:26:41;;;;;;;1.83;1.50;;;;;;;;;;5114206;28;20024;-66
2021/05/04 00:29:07;;;;;;;2.33;1.40;;;;;;;;;;5108996;28;20020;-65
2021/05/04 00:31:33;;;;;;;2.63;1.65;;;;;;;;;;5093810;28;20099;-66
2021/05/04 00:33:59;;;;;;;3.65;1.90;;;;;;;;;;5107202;28;20031;-65
2021/05/04 00:36:26;;;;;;;3.22;1.58;;;;;;;;;;5113955;28;20105;-65
2021/05/04 00:38:52;;;;;;;3.72;1.50;;;;;;;;;;5110675;28;20027;-66
2021/05/04 00:41:18;;;;;;;2.05;1.40;;;;;;;;;;5093560;28;20050;-65
2021/05/04 00:43:44;;;;;;;1.63;1.50;;;;;;;;;;5106328;28;20392;-66
2021/05/04 00:46:10;;;;;;;6.45;1.90;;;;;;;;;;5094641;28;20028;-66
2021/05/04 00:48:36;;;;;;;2.88;1.92;;;;;;;;;;5105136;28;20424;-65
2021/05/04 00:51:03;;;;;;;4.40;1.90;;;;;;;;;;5077036;28;20077;-66
2021/05/04 00:53:30;;;;;;;1.73;1.60;;;;;;;;;;5107806;28;20032;-66
2021/05/04 00:55:57;;;;;;;3.63;1.48;;;;;;;;;;5113661;28;20080;-66
2021/05/04 00:58:24;;;;;;;3.17;1.65;;;;;;;;;;5095894;28;20020;-66
2021/05/04 01:00:50;;;;;;;1.60;1.50;;;;;;;;;;5104261;28;20031;-66
2021/05/04 01:03:16;;;;;;;1.50;1.40;;;;;;;;;;5095136;28;20016;-66
2021/05/04 01:05:42;;;;;;;4.15;2.05;;;;;;;;;;5111812;28;20085;-65
2021/05/04 01:08:08;;;;;;;6.07;1.83;;;;;;;;;;5113504;28;20026;-66
2021/05/04 01:10:34;;;;;;;2.78;1.70;;;;;;;;;;5111664;28;20036;-65
2021/05/04 01:13:00;;;;;;;3.17;1.52;;;;;;;;;;5113475;28;20027;-67
2021/05/04 01:15:27;;;;;;;2.03;1.80;;;;;;;;;;5092619;28;20055;-64
2021/05/04 01:17:53;;;;;;;3.38;1.80;;;;;;;;;;5112406;28;20541;-65
2021/05/04 01:20:19;;;;;;;3.08;1.60;;;;;;;;;;5100646;28;20036;-65
2021/05/04 01:22:46;;;;;;;3.70;1.75;;;;;;;;;;5092027;28;20028;-66
2021/05/04 01:25:12;;;;;;;6.43;1.60;;;;;;;;;;5093059;28;20016;-66
2021/05/04 01:27:38;;;;;;;3.78;1.63;;;;;;;;;;5092022;28;20035;-65
2021/05/04 01:30:05;;;;;;;3.28;2.00;;;;;;;;;;5101262;28;20052;-66
2021/05/04 01:32:31;;;;;;;8.15;2.50;;;;;;;;;;5112144;28;20427;-66
2021/05/04 01:34:57;;;;;;;2.20;1.70;;;;;;;;;;5110502;28;20535;-65
2021/05/04 01:37:24;;;;;;;2.75;1.98;;;;;;;;;;5112311;28;20026;-66
2021/05/04 01:39:50;;;;;;;3.00;1.75;;;;;;;;;;5104488;28;20375;-67
2021/05/04 01:42:18;;;;;;;3.95;2.00;;;;;;;;;;5092082;28;20478;-66
2021/05/04 01:44:44;;;;;;;2.25;1.75;;;;;;;;;;5097271;28;20034;-66
2021/05/04 01:47:10;;;;;;;2.70;1.92;;;;;;;;;;5111969;28;20431;-65
2021/05/04 01:49:36;;;;;;;3.92;1.58;;;;;;;;;;5109642;28;20027;-66
2021/05/04 01:52:03;;;;;;;2.05;1.85;;;;;;;;;;5111808;28;20508;-66
2021/05/04 01:54:29;;;;;;;7.13;2.08;;;;;;;;;;5110330;28;20495;-66
2021/05/04 01:56:57;;;;;;;4.55;2.00;;;;;;;;;;5091292;28;20021;-63
2021/05/04 01:59:24;;;;;;;2.85;1.63;;;;;;;;;;5092892;28;20023;-65
2021/05/04 02:01:50;;;;;;;3.53;1.70;;;;;;;;;;5091554;28;20028;-66
2021/05/04 02:04:17;;;;;;;3.40;1.90;;;;;;;;;;5091058;28;20498;-66
2021/05/04 02:06:43;;;;;;;3.20;1.58;;;;;;;;;;5109549;28;20019;-65
2021/05/04 02:09:09;;;;;;;2.63;1.98;;;;;;;;;;5110502;28;20470;-66
2021/05/04 02:11:36;;;;;;;8.25;1.90;;;;;;;;;;5091349;28;20047;-65
2021/05/04 02:14:03;;;;;;;2.83;2.17;;;;;;;;;;5065805;28;735092;-66
2021/05/04 02:16:29;;;;;;;5.22;1.83;;;;;;;;;;5092917;28;20378;-65
2021/05/04 02:18:55;;;;;;;3.58;2.05;;;;;;;;;;5092313;28;20074;-65
2021/05/04 02:21:21;;;;;;;4.40;2.25;;;;;;;;;;5098194;28;20407;-65
2021/05/04 02:23:48;;;;;;;5.97;2.38;;;;;;;;;;5092284;28;20070;-65
2021/05/04 02:26:16;;;;;;;3.47;2.00;;;;;;;;;;5111074;28;20160;-65
2021/05/04 02:28:42;;;;;;;6.38;2.20;;;;;;;;;;5112611;28;20098;-68
2021/05/04 02:31:08;;;;;;;7.20;2.47;;;;;;;;;;5110697;28;20023;-66
2021/05/04 02:33:35;;;;;;;6.25;2.95;;;;;;;;;;5112847;28;20482;-65
2021/05/04 02:36:03;;;;;;;7.05;2.50;;;;;;;;;;5094747;28;20077;-65
2021/05/04 02:38:30;;;;;;;5.05;2.00;;;;;;;;;;5092160;28;20032;-65
2021/05/04 02:40:56;;;;;;;3.38;1.90;;;;;;;;;;5093201;28;20035;-66
2021/05/04 02:43:22;;;;;;;6.72;2.42;;;;;;;;;;5092069;28;20034;-65
2021/05/04 02:45:48;;;;;;;9.85;2.58;;;;;;;;;;5096601;28;20027;-65
2021/05/04 02:48:15;;;;;;;2.80;2.00;;;;;;;;;;5112939;28;20030;-66
2021/05/04 02:50:41;;;;;;;7.70;2.88;;;;;;;;;;5095457;28;20047;-65
2021/05/04 02:53:08;;;;;;;5.50;2.40;;;;;;;;;;5104370;28;20058;-65
2021/05/04 02:55:34;;;;;;;3.33;2.50;;;;;;;;;;5112184;28;20105;-65
2021/05/04 02:58:00;;;;;;;4.30;2.33;;;;;;;;;;5091969;28;20074;-66
2021/05/04 03:00:26;;;;;;;6.38;2.05;;;;;;;;;;5091755;28;20039;-66
2021/05/04 03:02:52;;;;;;;4.90;1.90;;;;;;;;;;5109902;28;20012;-65
2021/05/04 03:05:21;;;;;;;4.13;2.08;;;;;;;;;;5095543;28;20482;-66
2021/05/04 03:07:47;;;;;;;2.40;1.80;;;;;;;;;;5114127;28;20522;-66
2021/05/04 03:10:13;;;;;;;5.70;2.10;;;;;;;;;;5115817;28;20026;-66
2021/05/04 03:12:40;;;;;;;7.55;2.38;;;;;;;;;;5114053;28;20027;-65
2021/05/04 03:15:06;;;;;;;9.90;3.17;;;;;;;;;;5115462;28;20044;-66
2021/05/04 03:17:32;;;;;;;6.38;2.95;;;;;;;;;;5098829;28;20024;-66
2021/05/04 03:19:58;;;;;;;7.30;2.20;;;;;;;;;;5095443;28;20353;-65
2021/05/04 03:22:25;;;;;;;3.42;2.40;;;;;;;;;;5096275;28;20020;-65
2021/05/04 03:24:51;;;;;;;3.80;2.08;;;;;;;;;;5095017;28;20026;-64
2021/05/04 03:27:17;;;;;;;6.45;2.38;;;;;;;;;;5105596;28;20147;-65
2021/05/04 03:29:43;;;;;;;6.88;2.03;;;;;;;;;;5097120;28;20360;-65
2021/05/04 03:32:09;;;;;;;4.05;2.38;;;;;;;;;;5113600;28;20068;-66
2021/05/04 03:34:35;;;;;;;5.78;2.20;;;;;;;;;;5115264;28;20535;-64
2021/05/04 03:37:02;;;;;;;7.30;3.10;;;;;;;;;;5102454;28;20036;-65
2021/05/04 03:39:28;;;;;;;6.68;2.10;;;;;;;;;;5094628;28;20060;-65
2021/05/04 03:41:54;;;;;;;4.60;2.17;;;;;;;;;;5095805;28;20032;-64
2021/05/04 03:44:20;;;;;;;6.80;2.42;;;;;;;;;;5095131;28;20428;-65
2021/05/04 03:46:46;;;;;;;12.10;3.38;;;;;;;;;;5104906;28;20100;-66
2021/05/04 03:49:12;;;;;;;6.38;2.28;;;;;;;;;;5096354;28;20062;-66
2021/05/04 03:51:39;;;;;;;5.30;2.33;;;;;;;;;;5106082;28;20036;-65
2021/05/04 03:54:06;;;;;;;6.90;2.50;;;;;;;;;;5094462;28;20094;-64
2021/05/04 03:56:32;;;;;;;4.10;2.20;;;;;;;;;;5098836;28;20061;-65
2021/05/04 03:58:58;;;;;;;5.20;2.35;;;;;;;;;;5094466;28;20020;-65
2021/05/04 04:01:24;;;;;;;15.85;3.95;;;;;;;;;;5097590;28;20037;-65
2021/05/04 04:03:50;;;;;;;6.93;3.30;;;;;;;;;;5114742;28;20027;-67
2021/05/04 04:06:17;;;;;;;7.55;2.42;;;;;;;;;;5108177;28;20028;-66
2021/05/04 04:08:45;;;;;;;8.55;2.90;;;;;;;;;;5112799;28;20055;-65
2021/05/04 04:11:11;;;;;;;6.93;3.33;;;;;;;;;;5112745;28;20024;-65
2021/05/04 04:13:37;;;;;;;7.57;2.40;;;;;;;;;;5113562;28;20031;-65
2021/05/04 04:16:04;;;;;;;6.30;2.85;;;;;;;;;;5108910;28;20044;-65
2021/05/04 04:18:30;;;;;;;5.35;2.28;;;;;;;;;;5109900;28;20035;-65
2021/05/04 04:20:56;;;;;;;8.55;2.40;;;;;;;;;;5107510;28;20600;-65
2021/05/04 04:23:23;;;;;;;7.63;3.13;;;;;;;;;;5094056;28;20027;-66
2021/05/04 04:25:49;;;;;;;5.53;2.22;;;;;;;;;;5095081;28;20032;-66
2021/05/04 04:28:15;;;;;;;9.80;2.58;;;;;;;;;;5093830;28;20025;-65
2021/05/04 04:30:41;;;;;;;9.43;2.50;;;;;;;;;;5104823;28;20046;-66
2021/05/04 04:33:07;;;;;;;7.15;2.85;;;;;;;;;;5093738;28;20103;-65
2021/05/04 04:35:34;;;;;;;10.15;2.47;;;;;;;;;;5095091;28;20105;-65
2021/05/04 04:38:00;;;;;;;8.07;2.90;;;;;;;;;;5093612;28;20024;-66
2021/05/04 04:40:26;;;;;;;8.35;2.40;;;;;;;;;;5094713;28;20115;-65
2021/05/04 04:42:52;;;;;;;8.30;2.90;;;;;;;;;;5093595;28;20471;-65
2021/05/04 04:45:18;;;;;;;6.90;2.50;;;;;;;;;;5094589;28;20024;-66
2021/05/04 04:47:44;;;;;;;5.85;3.03;;;;;;;;;;5093483;28;20027;-66
2021/05/04 04:50:11;;;;;;;5.32;2.50;;;;;;;;;;5101824;28;20032;-66
2021/05/04 04:52:37;;;;;;;6.20;2.53;;;;;;;;;;5106161;28;20019;-64
2021/05/04 04:55:04;;;;;;;7.63;2.50;;;;;;;;;;5093346;28;20458;-65
2021/05/04 04:57:30;;;;;;;13.00;3.45;;;;;;;;;;5095529;28;20036;-65
2021/05/04 04:59:56;;;;;;;4.57;2.55;;;;;;;;;;5093356;28;20352;-65
2021/05/04 05:02:22;;;;;;;6.18;2.22;;;;;;;;;;5095040;28;20478;-65
2021/05/04 05:04:49;;;;;;;7.35;2.47;;;;;;;;;;5109431;28;20424;-64
2021/05/04 05:07:15;;;;;;;9.98;2.67;;;;;;;;;;5094520;28;20103;-64
2021/05/04 05:09:42;;;;;;;4.70;2.10;;;;;;;;;;5093047;28;20019;-64
2021/05/04 05:12:08;;;;;;;7.60;2.28;;;;;;;;;;5094054;28;20024;-64
2021/05/04 05:14:36;;;;;;;6.35;2.40;;;;;;;;;;5092984;28;20119;-64
2021/05/04 05:17:03;;;;;;;4.55;2.45;;;;;;;;;;5096085;28;20019;-65
2021/05/04 05:19:29;;;;;;;7.55;2.60;;;;;;;;;;5083145;28;20031;-66
2021/05/04 05:21:55;;;;;;;8.60;2.47;;;;;;;;;;5093924;28;20032;-64
2021/05/04 05:24:22;;;;;;;8.70;3.33;;;;;;;;;;5092774;28;20470;-65
2021/05/04 05:26:52;;;;;;;7.97;2.70;;;;;;;;;;5094101;28;20020;-65
2021/05/04 05:29:18;;;;;;;6.53;2.90;;;;;;;;;;5093123;28;20028;-65
2021/05/04 05:31:44;;;;;;;9.55;3.13;;;;;;;;;;5093206;28;20115;-64
2021/05/04 05:34:10;;;;;;;6.65;2.40;;;;;;;;;;5092643;28;20430;-65
2021/05/04 05:36:36;;;;;;;6.72;2.65;;;;;;;;;;5101588;28;20032;-65
2021/05/04 05:39:02;;;;;;;6.47;2.40;;;;;;;;;;5093060;28;20024;-66
2021/05/04 05:41:28;;;;;;;6.60;2.67;;;;;;;;;;5112911;28;20023;-65
2021/05/04 05:43:55;;;;;;;6.15;2.33;;;;;;;;;;5105224;28;20024;-65
2021/05/04 05:46:22;;;;;;;5.15;2.30;;;;;;;;;;5100319;28;20032;-65
2021/05/04 05:48:48;;;;;;;6.70;2.60;;;;;;;;;;5111123;28;20172;-65
2021/05/04 05:51:14;;;;;;;7.85;2.90;;;;;;;;;;5112846;28;20024;-65
2021/05/04 05:53:40;;;;;;;8.45;2.35;;;;;;;;;;5092751;28;20039;-65
2021/05/04 05:56:06;;;;;;;4.72;2.30;;;;;;;;;;5102797;28;20351;-65
2021/05/04 05:58:33;;;;;;;7.53;2.70;;;;;;;;;;5110485;28;20063;-65
2021/05/04 06:00:59;;;;;;;5.78;2.20;;;;;;;;;;5097513;28;20024;-64
2021/05/04 06:03:27;;;;;;;14.48;2.85;;;;;;;;;;5100207;28;20073;-64
2021/05/04 06:05:53;;;;;;;6.88;2.13;;;;;;;;;;5092472;28;20017;-65
2021/05/04 06:08:19;;;;;;;4.72;3.05;;;;;;;;;;5092317;28;20028;-66
2021/05/04 06:10:47;;;;;;;5.35;2.58;;;;;;;;;;5103993;28;20020;-65
2021/05/04 06:13:13;;;;;;;8.32;2.10;;;;;;;;;;5104920;28;20402;-64
2021/05/04 06:15:40;;;;;;;5.03;2.25;;;;;;;;;;5092374;28;20044;-64
2021/05/04 06:18:06;;;;;;;6.60;2.33;;;;;;;;;;5098319;28;20046;-65
2021/05/04 06:20:32;;;;;;;6.03;2.63;;;;;;;;;;5106089;28;20650;-66
2021/05/04 06:22:58;;;;;;;6.18;2.53;;;;;;;;;;5111196;28;20374;-65
2021/05/04 06:25:25;;;;;;;5.78;2.10;;;;;;;;;;5112291;28;20110;-66
2021/05/04 06:27:53;;;;;;;8.77;2.50;;;;;;;;;;5109875;28;20147;-64
2021/05/04 06:30:19;;;;;;;8.85;3.17;;;;;;;;;;5092117;28;20079;-65
2021/05/04 06:32:47;;;;;;;5.55;2.83;;;;;;;;;;5091818;28;20016;-63
2021/05/04 06:35:17;;;;;;;6.68;2.47;;;;;;;;;;5092090;28;20020;-65
2021/05/04 06:37:44;;;;;;;4.03;2.30;;;;;;;;;;5095123;28;20031;-65
2021/05/04 06:40:10;;;;;;;5.78;1.88;;;;;;;;;;5095819;28;20028;-66
2021/05/04 06:42:36;;;;;;;3.55;2.78;;;;;;;;;;5095856;28;20020;-65
2021/05/04 06:45:03;;;;;;;5.88;1.92;;;;;;;;;;5095751;28;20078;-66
2021/05/04 06:47:29;;;;;;;7.03;2.45;;;;;;;;;;5095627;28;20028;-64
2021/05/04 06:49:55;;;;;;;3.67;1.90;;;;;;;;;;5095959;28;20444;-65
2021/05/04 06:52:21;;;;;;;5.22;2.17;;;;;;;;;;5095764;28;20031;-65
2021/05/04 06:54:48;;;;;;;6.28;2.40;;;;;;;;;;5095605;28;20021;-65
2021/05/04 06:57:14;;;;;;;4.32;2.20;;;;;;;;;;5095996;28;20035;-64
2021/05/04 07:00:00;;;;;;;3.42;1.90;;;;;;;;;;5102633;28;20494;-64
2021/05/04 07:02:26;;;;;;;2.55;1.90;;;;;;;;;;5107027;28;20509;-64
2021/05/04 07:04:52;;;;;;;3.20;1.83;;;;;;;;;;5098320;28;20432;-65
2021/05/04 07:07:19;;;;;;;4.95;2.05;;;;;;;;;;5090673;28;20066;-64
2021/05/04 07:09:45;;;;;;;3.80;2.28;;;;;;;;;;5091222;28;20035;-65
2021/05/04 07:12:11;;;;;;;6.13;2.10;;;;;;;;;;5090951;28;20097;-65
2021/05/04 07:14:38;;;;;;;4.70;1.90;;;;;;;;;;5102446;28;20035;-65
2021/05/04 07:17:05;;;;;;;4.85;2.38;;;;;;;;;;5103575;28;20023;-64
2021/05/04 07:19:31;;;;;;;8.98;2.20;;;;;;;;;;5103822;28;20032;-64
2021/05/04 07:21:57;;;;;;;8.95;2.08;;;;;;;;;;5095044;28;20046;-64
2021/05/04 07:24:24;;;;;;;8.15;1.75;;;;;;;;;;5099832;28;20072;-64
2021/05/04 07:26:50;;;;;;;7.82;2.65;;;;;;;;;;5096601;28;20435;-64
2021/05/04 07:29:16;;;;;;;9.35;2.97;;;;;;;;;;5099822;28;20036;-64
2021/05/04 07:31:43;;;;;;;5.20;2.35;;;;;;;;;;5106332;28;20085;-64
2021/05/04 07:34:10;;;;;;;5.57;2.20;;;;;;;;;;5100209;28;20114;-63
2021/05/04 07:36:36;;;;;;;5.75;2.72;;;;;;;;;;5090304;28;20097;-65
2021/05/04 07:39:02;;;;;;;2.90;2.05;;;;;;;;;;5107677;28;20028;-64
2021/05/04 07:41:30;;;;;;;5.95;2.20;;;;;;;;;;5106568;28;20111;-65
2021/05/04 07:43:56;;;;;;;4.82;2.20;;;;;;;;;;5107635;28;20081;-65
2021/05/04 07:46:22;;;;;;;5.80;2.25;;;;;;;;;;5109029;28;20028;-64
2021/05/04 07:48:48;;;;;;;6.43;2.08;;;;;;;;;;5107030;28;20027;-63
2021/05/04 07:51:14;;;;;;;5.68;2.17;;;;;;;;;;5095261;28;20399;-66
2021/05/04 07:53:40;;;;;;;5.40;1.90;;;;;;;;;;5095078;28;20028;-64
2021/05/04 07:56:07;;;;;;;4.85;2.72;;;;;;;;;;5095018;28;20061;-64
2021/05/04 07:58:33;;;;;;;7.80;2.70;;;;;;;;;;5102388;28;20031;-62
2021/05/04 08:00:59;;;;;;;3.70;2.42;;;;;;;;;;5096223;28;20045;-63
2021/05/04 08:03:27;;;;;;;4.97;2.20;;;;;;;;;;5097255;28;20027;-64
2021/05/04 08:05:53;;;;;;;2.45;1.90;;;;;;;;;;5095924;28;20390;-64
2021/05/04 08:08:19;;;;;;;5.82;2.05;;;;;;;;;;5077919;28;20024;-64
2021/05/04 08:10:45;;;;;;;6.25;2.10;;;;;;;;;;5092260;28;20095;-63
2021/05/04 08:13:12;;;;;;;6.43;2.05;;;;;;;;;;5089894;28;20028;-64
2021/05/04 08:15:39;;;;;;;6.15;2.20;;;;;;;;;;5099556;28;20055;-64
2021/05/04 08:18:09;;;;;;;6.13;1.98;;;;;;;;;;5097695;28;20529;-63
2021/05/04 08:20:43;;;;;;;4.18;2.03;;;;;;;;;;5093432;28;20039;-63
2021/05/04 08:23:10;;;;;;;6.68;2.85;;;;;;;;;;5096587;28;20055;-64
2021/05/04 08:25:52;;;;;;;3.50;3.20;;;;;;;;;;5104892;28;20051;-64
2021/05/04 08:28:18;;;;;;;3.55;2.00;;;;;;;;;;5082612;28;20031;-64
2021/05/04 08:30:45;;;;;;;8.02;2.50;;;;;;;;;;5092350;28;20028;-65
2021/05/04 08:33:11;;;;;;;4.40;2.00;;;;;;;;;;5076574;28;20024;-65
2021/05/04 08:35:37;;;;;;;4.80;2.47;;;;;;;;;;5099784;28;20110;-65
2021/05/04 08:38:03;;;;;;;3.90;1.95;;;;;;;;;;5095417;28;20030;-66
2021/05/04 08:40:29;;;;;;;4.47;2.42;;;;;;;;;;5091457;28;20042;-65
2021/05/04 08:42:56;;;;;;;5.28;2.13;;;;;;;;;;5071304;28;20394;-65
2021/05/04 08:45:22;;;;;;;3.80;2.58;;;;;;;;;;5095884;28;20035;-65
2021/05/04 08:47:50;;;;;;;5.82;2.30;;;;;;;;;;5102399;28;20027;-65
2021/05/04 08:50:17;;;;;;;6.97;2.13;;;;;;;;;;5094473;28;20059;-64
2021/05/04 08:52:43;;;;;;;5.85;2.33;;;;;;;;;;5093391;28;20107;-64
2021/05/04 08:55:10;;;;;;;4.35;1.80;;;;;;;;;;5101273;28;20037;-63
2021/05/04 08:57:38;;;;;;;2.63;1.75;;;;;;;;;;5098231;28;20032;-65
2021/05/04 09:00:07;;;;;;;4.40;2.38;;;;;;;;;;5094417;28;20089;-64
2021/05/04 09:02:37;;;;;;;7.10;2.20;;;;;;;;;;5092153;28;20694;-65
2021/05/04 09:05:17;;;;;;;4.85;2.00;;;;;;;;;;5101348;28;20031;-67
2021/05/04 09:07:44;;;;;;;6.97;1.83;;;;;;;;;;5106579;28;20063;-63
2021/05/04 09:15:34;;;;;;;6.25;3.03;;;;;;;;;;5099331;28;20044;-65
2021/05/04 09:18:07;;;;;;;2.85;1.80;;;;;;;;;;5105527;28;20523;-66
2021/05/04 09:20:50;;;;;;;5.80;2.70;;;;;;;;;;5090126;28;20155;-65
2021/05/04 09:23:16;;;;;;;2.75;1.70;;;;;;;;;;5089294;28;20020;-65
2021/05/04 09:25:42;;;;;;;3.05;1.70;;;;;;;;;;5089429;28;20024;-65
2021/05/04 09:28:15;;;;;;;2.78;1.50;;;;;;;;;;5096339;28;20028;-63
2021/05/04 09:30:51;;;;;;;5.00;1.58;;;;;;;;;;5103166;28;20036;-67
2021/05/04 09:33:17;;;;;;;3.10;1.80;;;;;;;;;;5090887;28;20024;-65
2021/05/04 09:35:43;;;;;;;2.13;1.52;;;;;;;;;;5094148;28;20529;-65
2021/05/04 09:38:13;;;;;;;2.63;1.45;;;;;;;;;;5095405;28;20054;-65
2021/05/04 09:40:43;;;;;;;2.00;1.80;;;;;;;;;;5090988;28;20023;-66
2021/05/04 09:43:09;;;;;;;3.05;1.80;;;;;;;;;;5091682;28;20670;-65
2021/05/04 09:45:36;;;;;;;2.83;2.15;;;;;;;;;;5092537;28;20081;-66
2021/05/04 09:48:25;;;;;;;2.35;1.60;;;;;;;;;;5095957;28;20067;-66
2021/05/04 09:50:56;;;;;;;1.88;1.50;;;;;;;;;;5085351;28;20067;-65
2021/05/04 09:53:29;;;;;;;3.50;1.60;;;;;;;;;;5096960;28;20132;-66
2021/05/04 09:55:59;;;;;;;4.10;1.65;;;;;;;;;;5089967;28;20032;-65
2021/05/04 09:58:31;;;;;;;2.38;1.60;;;;;;;;;;5100198;28;20035;-65
2021/05/04 10:00:58;;;;;;;1.98;1.50;;;;;;;;;;5096659;28;20059;-64
2021/05/04 10:03:24;;;;;;;2.03;1.50;;;;;;;;;;5106297;28;20524;-66
2021/05/04 10:05:50;;;;;;;3.42;1.83;;;;;;;;;;5100273;28;20035;-64
2021/05/04 10:08:16;;;;;;;3.17;1.95;;;;;;;;;;5099843;28;20023;-65
2021/05/04 10:10:43;;;;;;;5.18;2.00;;;;;;;;;;5089017;28;20065;-65
2021/05/04 10:13:09;;;;;;;1.90;1.65;;;;;;;;;;5110728;28;20380;-66
2021/05/04 10:15:36;;;;;;;3.70;2.22;;;;;;;;;;5089537;28;20058;-69
2021/05/04 10:18:02;;;;;;;1.52;1.42;;;;;;;;;;5091821;28;20041;-65
2021/05/04 10:20:28;;;;;;;2.67;1.80;;;;;;;;;;5111473;28;20035;-65
2021/05/04 10:22:55;;;;;;;2.38;1.70;;;;;;;;;;5098432;28;20513;-66
2021/05/04 10:25:22;;;;;;;1.90;1.70;;;;;;;;;;5102328;28;20027;-66
2021/05/04 10:27:51;;;;;;;2.90;1.92;;;;;;;;;;5092222;28;20518;-65
2021/05/04 10:30:21;;;;;;;2.00;1.80;;;;;;;;;;5076832;28;20032;-66
2021/05/04 10:33:02;;;;;;;4.60;1.95;;;;;;;;;;5097151;28;20099;-65
2021/05/04 10:35:32;;;;;;;2.47;2.25;;;;;;;;;;5092617;28;20051;-66
2021/05/04 10:37:59;;;;;;;2.65;2.42;;;;;;;;;;5105899;28;20020;-66
2021/05/04 10:40:33;;;;;;;3.63;2.50;;;;;;;;;;5102688;28;20510;-66
2021/05/04 10:43:00;;;;;;;4.05;2.38;;;;;;;;;;5101299;28;20418;-65
2021/05/04 10:45:42;;;;;;;5.40;2.75;;;;;;;;;;5097089;28;20024;-66
2021/05/04 10:48:09;;;;;;;2.70;2.00;;;;;;;;;;5099849;28;20084;-66
2021/05/04 10:50:49;;;;;;;3.33;1.95;;;;;;;;;;5098648;28;20397;-67
2021/05/04 10:53:16;;;;;;;3.70;1.75;;;;;;;;;;5097844;28;20031;-65
2021/05/04 10:55:54;;;;;;;1.50;1.40;;;;;;;;;;5105272;28;20035;-66
2021/05/04 10:58:21;;;;;;;1.73;1.63;;;;;;;;;;5095994;28;20027;-67
2021/05/04 11:00:51;;;;;;;3.50;2.10;;;;;;;;;;5108593;28;20553;-66
2021/05/04 11:03:32;;;;;;;2.85;1.90;;;;;;;;;;5102608;28;20036;-65
2021/05/04 11:06:02;;;;;;;3.35;1.98;;;;;;;;;;5103994;28;20027;-66
2021/05/04 11:08:43;;;;;;;4.75;2.05;;;;;;;;;;5103306;28;20032;-68
2021/05/04 11:11:26;;;;;;;2.88;1.80;;;;;;;;;;5092713;28;20039;-67
2021/05/04 11:13:53;;;;;;;3.58;1.80;;;;;;;;;;5096037;28;20047;-64
2021/05/04 11:16:34;;;;;;;4.20;1.80;;;;;;;;;;5096046;28;20114;-67
2021/05/04 11:19:05;;;;;;;3.45;1.90;;;;;;;;;;5094456;28;20054;-64
2021/05/04 11:21:41;;;;;;;2.67;1.67;;;;;;;;;;5092360;28;20522;-65
2021/05/04 11:24:12;;;;;;;6.18;1.90;;;;;;;;;;5101397;28;20020;-66
2021/05/04 11:26:50;;;;;;;2.35;1.83;;;;;;;;;;5096642;28;20354;-67
2021/05/04 11:29:17;;;;;;;6.05;1.83;;;;;;;;;;5102067;28;20047;-65
2021/05/04 11:31:47;;;;;;;2.67;1.75;;;;;;;;;;5092691;28;20032;-65
2021/05/04 11:34:32;;;;;;;6.30;1.90;;;;;;;;;;5098262;28;20098;-66
2021/05/04 11:36:59;;;;;;;2.63;1.70;;;;;;;;;;5100043;28;20043;-66
2021/05/04 11:39:25;;;;;;;2.10;1.70;;;;;;;;;;5103071;28;20035;-66
2021/05/04 11:41:59;;;;;;;2.70;1.95;;;;;;;;;;5095801;28;20066;-67
2021/05/04 11:44:25;;;;;;;1.63;1.52;;;;;;;;;;5093988;28;20031;-67
2021/05/04 11:46:53;;;;;;;3.08;1.60;;;;;;;;;;5107196;28;20027;-67
2021/05/04 11:49:28;;;;;;;6.22;2.47;;;;;;;;;;5081709;28;20070;-65
2021/05/04 11:52:04;;;;;;;3.47;2.38;;;;;;;;;;5098620;28;20081;-66
2021/05/04 11:54:31;;;;;;;3.75;1.80;;;;;;;;;;5100823;28;20465;-67
2021/05/04 11:56:58;;;;;;;3.03;2.10;;;;;;;;;;5091656;28;20059;-66
2021/05/04 11:59:26;;;;;;;3.35;1.90;;;;;;;;;;5098653;28;20036;-65
2021/05/04 12:01:52;;;;;;;3.97;1.98;;;;;;;;;;5102016;28;20451;-67
2021/05/04 12:04:18;;;;;;;2.40;1.80;;;;;;;;;;5082921;28;20032;-65
2021/05/04 12:06:48;;;;;;;2.47;1.60;;;;;;;;;;5104417;28;20486;-66
2021/05/04 12:09:17;;;;;;;3.10;1.60;;;;;;;;;;5102396;28;20028;-66
2021/05/04 12:11:43;;;;;;;3.47;1.63;;;;;;;;;;5091715;28;20040;-65
2021/05/04 12:14:10;;;;;;;3.35;1.83;;;;;;;;;;5103747;28;20023;-63
2021/05/04 12:16:36;;;;;;;4.43;1.85;;;;;;;;;;5105683;28;20031;-66
2021/05/04 12:19:02;;;;;;;3.90;2.05;;;;;;;;;;5110083;28;20382;-65
2021/05/04 12:21:28;;;;;;;2.67;2.35;;;;;;;;;;5100123;28;20035;-66
2021/05/04 12:23:54;;;;;;;3.28;2.20;;;;;;;;;;5104782;28;20416;-65
2021/05/04 12:26:21;;;;;;;3.50;2.10;;;;;;;;;;5108049;28;20036;-65
2021/05/04 12:28:48;;;;;;;2.88;1.92;;;;;;;;;;5093152;28;20127;-66
2021/05/04 12:31:18;;;;;;;8.85;3.05;;;;;;;;;;5099284;28;20027;-66
2021/05/04 12:33:51;;;;;;;4.45;2.30;;;;;;;;;;5086558;28;20071;-65
2021/05/04 12:36:32;;;;;;;3.40;1.80;;;;;;;;;;5096681;28;20019;-65
2021/05/04 12:38:59;;;;;;;2.70;1.83;;;;;;;;;;5095979;28;20028;-68
2021/05/04 12:41:33;;;;;;;3.53;1.83;;;;;;;;;;5099310;28;20059;-64
2021/05/04 12:44:21;;;;;;;1.90;1.80;;;;;;;;;;5094662;28;20073;-65
2021/05/04 12:46:48;;;;;;;2.78;1.90;;;;;;;;;;5090496;28;20093;-65
2021/05/04 12:49:15;;;;;;;5.45;2.08;;;;;;;;;;5097394;28;20619;-66
2021/05/04 12:51:46;;;;;;;4.18;2.25;;;;;;;;;;5091867;28;20112;-64
2021/05/04 12:54:16;;;;;;;2.60;2.00;;;;;;;;;;5092112;28;20452;-64
2021/05/04 12:56:42;;;;;;;3.08;2.20;;;;;;;;;;5092520;28;20032;-65
2021/05/04 12:59:12;;;;;;;3.47;2.20;;;;;;;;;;5100088;28;20032;-67
2021/05/04 13:01:38;;;;;;;3.80;1.60;;;;;;;;;;5096007;28;20378;-66
2021/05/04 13:04:32;;;;;;;2.15;1.95;;;;;;;;;;5099481;28;20031;-68
2021/05/04 13:07:02;;;;;;;4.88;2.85;;;;;;;;;;5090924;28;20115;-66
2021/05/04 13:09:48;;;;;;;3.35;2.10;;;;;;;;;;5088920;28;20024;-67
2021/05/04 13:12:37;;;;;;;6.65;4.47;;;;;;;;;;5096925;28;20034;-67
2021/05/04 13:30:54;;;;;;;5.82;2.20;;;;;;;;;;5100102;28;20030;-65
2021/05/04 13:33:20;;;;;;;4.60;2.40;;;;;;;;;;5098780;28;20040;-65
2021/05/04 13:35:56;;;;;;;3.30;2.10;;;;;;;;;;5096846;28;20039;-67
2021/05/04 13:49:38;;;;;;;2.55;1.70;;;;;;;;;;5096896;28;20046;-68
2021/05/04 13:52:04;;;;;;;4.65;3.00;;;;;;;;;;5101496;28;20502;-66
2021/05/04 13:54:30;;;;;;;2.78;2.05;;;;;;;;;;5072629;28;20097;-66
2021/05/04 13:56:56;;;;;;;4.60;2.58;;;;;;;;;;5095734;28;20077;-66
2021/05/04 13:59:22;;;;;;;5.40;3.13;;;;;;;;;;5103009;28;20032;-65
2021/05/04 14:01:58;;;;;;;4.55;2.75;;;;;;;;;;5093105;28;20027;-66
2021/05/04 14:04:35;;;;;;;2.55;2.00;;;;;;;;;;5093729;28;20048;-66
2021/05/04 14:28:17;;;;;;;5.70;3.13;;;;;;;;;;5091451;28;20035;-64
2021/05/04 14:30:43;;;;;;;5.03;2.70;;;;;;;;;;5094766;28;20035;-64
2021/05/04 14:33:09;;;;;;;4.60;3.50;;;;;;;;;;5098673;28;20028;-66
2021/05/04 14:35:47;;;;;;;3.75;2.15;;;;;;;;;;5105827;28;20040;-64
2021/05/04 14:44:01;;;;;;;3.97;1.98;;;;;;;;;;5094449;28;20550;-64
2021/05/04 14:57:37;;;;;;;3.37;2.70;;;;;;;;;;5094520;28;20276;-65
2021/05/04 15:02:57;;;;;;;5.05;3.88;;;;;;;;;;5063987;28;20057;-65
2021/05/04 15:05:27;;;;;;;4.22;2.25;;;;;;;;;;5097351;28;20463;-67
2021/05/04 15:07:54;;;;;;;8.18;3.33;;;;;;;;;;5097308;28;20038;-67
2021/05/04 15:10:20;;;;;;;4.82;2.53;;;;;;;;;;5097424;28;20031;-66
2021/05/04 15:12:46;;;;;;;5.00;2.38;;;;;;;;;;5091263;28;20093;-67
2021/05/04 15:15:25;;;;;;;3.80;2.50;;;;;;;;;;5100369;28;20110;-67
2021/05/04 15:23:12;;;;;;;6.78;3.08;;;;;;;;;;5098595;28;20055;-68
2021/05/04 15:25:38;;;;;;;8.80;5.13;;;;;;;;;;5098648;28;20034;-66
2021/05/04 15:28:04;;;;;;;41.95;34.78;;;;;;;;;;5099136;28;20102;-68
2021/05/04 15:30:30;;;;;;;15.52;11.45;;;;;;;;;;5103121;28;20035;-66
2021/05/04 15:33:03;;;;;;;13.60;11.88;;;;;;;;;;5095654;28;20020;-66
2021/05/04 15:35:32;;;;;;;25.27;15.38;;;;;;;;;;5102641;28;20027;-67
2021/05/04 15:37:58;;;;;;;58.25;35.15;;;;;;;;;;5109445;28;20028;-67
2021/05/04 15:40:25;;;;;;;63.33;38.58;;;;;;;;;;5105544;28;20024;-67
2021/05/04 15:42:51;;;;;;;40.97;27.13;;;;;;;;;;5091879;28;20113;-65
2021/05/04 15:45:17;;;;;;;9.15;5.75;;;;;;;;;;5094300;28;20507;-66
2021/05/04 15:47:50;;;;;;;11.68;7.57;;;;;;;;;;5092109;28;20478;-65
2021/05/04 15:55:36;;;;;;;61.05;35.90;;;;;;;;;;5092294;28;20028;-65
2021/05/04 16:03:51;;;;;;;12.68;9.95;;;;;;;;;;5101179;28;20115;-65
2021/05/04 16:08:57;;;;;;;14.27;9.70;;;;;;;;;;5101750;28;20110;-66
2021/05/04 16:11:23;;;;;;;8.13;6.68;;;;;;;;;;5094934;28;20039;-66
2021/05/04 16:13:53;;;;;;;7.88;6.97;;;;;;;;;;5095807;28;20039;-65
2021/05/04 16:16:20;;;;;;;7.80;4.78;;;;;;;;;;5092085;28;20513;-65
2021/05/04 16:18:48;;;;;;;6.75;4.93;;;;;;;;;;5091219;28;20491;-66
2021/05/04 16:26:41;;;;;;;;;;;;;;;;;;5095556;28;20407;-65